sensor_id;sensor_type;location;lat;lon;timestamp;pressure;altitude;pressure_sealevel;temperature;humidity
13029;BME280;6581;42.662;23.402;2023-04-07T00:01:05;95083.69;;;2.72;68.67
13029;BME280;6581;42.662;23.402;2023-04-07T00:03:32;95085.59;;;2.54;70.68
13029;BME280;6581;42.662;23.402;2023-04-07T00:06:00;95088.69;;;2.39;72.43
13029;BME280;6581;42.662;23.402;2023-04-07T00:08:28;95093.00;;;2.35;73.31
13029;BME280;6581;42.662;23.402;2023-04-07T00:10:56;95085.16;;;2.17;75.22
13029;BME280;6581;42.662;23.402;2023-04-07T00:13:23;95084.56;;;2.03;77.66
13029;BME280;6581;42.662;23.402;2023-04-07T00:16:15;95089.00;;;1.94;78.67
13029;BME280;6581;42.662;23.402;2023-04-07T00:18:43;95088.84;;;1.91;78.93
13029;BME280;6581;42.662;23.402;2023-04-07T00:21:10;95090.69;;;1.82;80.14
13029;BME280;6581;42.662;23.402;2023-04-07T00:23:38;95087.47;;;1.85;81.41
13029;BME280;6581;42.662;23.402;2023-04-07T00:26:06;95087.59;;;1.79;82.02
13029;BME280;6581;42.662;23.402;2023-04-07T00:28:34;95084.22;;;1.70;82.88
13029;BME280;6581;42.662;23.402;2023-04-07T00:31:01;95078.97;;;1.53;84.05
13029;BME280;6581;42.662;23.402;2023-04-07T00:33:28;95083.28;;;1.49;85.29
13029;BME280;6581;42.662;23.402;2023-04-07T00:36:19;95076.22;;;1.50;85.60
13029;BME280;6581;42.662;23.402;2023-04-07T00:38:46;95082.22;;;1.50;85.73
13029;BME280;6581;42.662;23.402;2023-04-07T00:41:15;95079.75;;;1.45;85.72
13029;BME280;6581;42.662;23.402;2023-04-07T00:43:42;95090.63;;;1.39;86.31
13029;BME280;6581;42.662;23.402;2023-04-07T00:46:09;95083.06;;;1.28;86.87
13029;BME280;6581;42.662;23.402;2023-04-07T00:48:36;95084.16;;;1.27;87.99
13029;BME280;6581;42.662;23.402;2023-04-07T00:51:04;95081.53;;;1.27;87.94
13029;BME280;6581;42.662;23.402;2023-04-07T00:53:32;95086.44;;;1.29;88.44
13029;BME280;6581;42.662;23.402;2023-04-07T00:55:59;95083.66;;;1.17;89.02
13029;BME280;6581;42.662;23.402;2023-04-07T00:58:28;95093.13;;;1.04;89.75
13029;BME280;6581;42.662;23.402;2023-04-07T01:01:07;95083.34;;;1.10;89.77
13029;BME280;6581;42.662;23.402;2023-04-07T01:03:50;95081.91;;;1.04;90.53
13029;BME280;6581;42.662;23.402;2023-04-07T01:06:23;95074.09;;;1.04;90.71
13029;BME280;6581;42.662;23.402;2023-04-07T01:08:56;95080.09;;;1.04;91.00
13029;BME280;6581;42.662;23.402;2023-04-07T01:11:34;95069.84;;;1.16;90.37
13029;BME280;6581;42.662;23.402;2023-04-07T01:14:05;95072.13;;;1.09;90.82
13029;BME280;6581;42.662;23.402;2023-04-07T01:16:41;95072.13;;;1.09;91.43
13029;BME280;6581;42.662;23.402;2023-04-07T01:19:15;95067.19;;;1.08;91.38
13029;BME280;6581;42.662;23.402;2023-04-07T01:21:55;95069.84;;;1.16;91.41
13029;BME280;6581;42.662;23.402;2023-04-07T01:27:33;95067.84;;;1.22;90.12
13029;BME280;6581;42.662;23.402;2023-04-07T01:30:29;95064.19;;;1.31;89.21
13029;BME280;6581;42.662;23.402;2023-04-07T01:32:58;95070.34;;;1.36;89.30
13029;BME280;6581;42.662;23.402;2023-04-07T01:35:29;95051.44;;;1.30;89.43
13029;BME280;6581;42.662;23.402;2023-04-07T01:37:56;95067.25;;;1.25;88.70
13029;BME280;6581;42.662;23.402;2023-04-07T01:40:26;95062.63;;;1.22;89.21
13029;BME280;6581;42.662;23.402;2023-04-07T01:42:56;95060.03;;;1.22;89.54
13029;BME280;6581;42.662;23.402;2023-04-07T01:45:50;95065.69;;;1.24;89.22
13029;BME280;6581;42.662;23.402;2023-04-07T01:48:17;95066.78;;;1.23;89.69
13029;BME280;6581;42.662;23.402;2023-04-07T01:50:45;95053.88;;;1.18;89.98
13029;BME280;6581;42.662;23.402;2023-04-07T01:53:13;95051.28;;;1.18;89.61
13029;BME280;6581;42.662;23.402;2023-04-07T01:55:41;95058.03;;;1.19;89.44
13029;BME280;6581;42.662;23.402;2023-04-07T01:58:08;95053.44;;;1.24;89.18
13029;BME280;6581;42.662;23.402;2023-04-07T02:00:40;95051.41;;;1.13;90.31
13029;BME280;6581;42.662;23.402;2023-04-07T02:03:17;95047.25;;;1.12;90.75
13029;BME280;6581;42.662;23.402;2023-04-07T02:05:47;95046.06;;;1.26;89.80
13029;BME280;6581;42.662;23.402;2023-04-07T02:08:17;95047.75;;;1.22;89.18
13029;BME280;6581;42.662;23.402;2023-04-07T02:10:47;95048.81;;;1.21;89.46
13029;BME280;6581;42.662;23.402;2023-04-07T02:13:17;95054.34;;;1.28;88.69
13029;BME280;6581;42.662;23.402;2023-04-07T02:15:47;95045.78;;;1.28;88.94
13029;BME280;6581;42.662;23.402;2023-04-07T02:18:19;95048.69;;;1.26;89.47
13029;BME280;6581;42.662;23.402;2023-04-07T02:20:49;95053.16;;;1.34;88.67
13029;BME280;6581;42.662;23.402;2023-04-07T02:23:17;95040.25;;;1.38;88.68
13029;BME280;6581;42.662;23.402;2023-04-07T02:25:45;95048.22;;;1.33;89.13
13029;BME280;6581;42.662;23.402;2023-04-07T02:28:12;95041.34;;;1.46;88.53
13029;BME280;6581;42.662;23.402;2023-04-07T02:31:04;95048.28;;;1.50;88.73
13029;BME280;6581;42.662;23.402;2023-04-07T02:33:33;95042.13;;;1.55;87.92
13029;BME280;6581;42.662;23.402;2023-04-07T02:36:00;95048.13;;;1.55;87.35
13029;BME280;6581;42.662;23.402;2023-04-07T02:38:27;95043.22;;;1.54;87.21
13029;BME280;6581;42.662;23.402;2023-04-07T02:40:55;95050.41;;;1.65;87.19
13029;BME280;6581;42.662;23.402;2023-04-07T02:43:23;95046.59;;;1.63;88.15
13029;BME280;6581;42.662;23.402;2023-04-07T02:45:51;95045.53;;;1.72;87.35
13029;BME280;6581;42.662;23.402;2023-04-07T02:48:18;95049.22;;;1.71;88.00
13029;BME280;6581;42.662;23.402;2023-04-07T02:50:46;95060.28;;;1.77;86.69
13029;BME280;6581;42.662;23.402;2023-04-07T02:53:13;95054.56;;;1.84;85.49
13029;BME280;6581;42.662;23.402;2023-04-07T02:55:40;95059.94;;;1.70;86.70
13029;BME280;6581;42.662;23.402;2023-04-07T02:58:08;95062.75;;;1.73;86.02
13029;BME280;6581;42.662;23.402;2023-04-07T03:00:39;95062.88;;;1.86;84.90
13029;BME280;6581;42.662;23.402;2023-04-07T03:03:13;95059.22;;;1.87;87.05
13029;BME280;6581;42.662;23.402;2023-04-07T03:05:48;95057.22;;;1.92;85.94
13029;BME280;6581;42.662;23.402;2023-04-07T03:08:15;95066.56;;;1.93;87.32
13029;BME280;6581;42.662;23.402;2023-04-07T03:10:43;95057.97;;;2.01;85.16
13029;BME280;6581;42.662;23.402;2023-04-07T03:13:11;95063.81;;;2.07;84.04
13029;BME280;6581;42.662;23.402;2023-04-07T03:15:42;95065.66;;;2.15;84.02
13029;BME280;6581;42.662;23.402;2023-04-07T03:18:10;95064.13;;;2.05;83.11
13029;BME280;6581;42.662;23.402;2023-04-07T03:20:40;95062.44;;;2.01;83.56
13029;BME280;6581;42.662;23.402;2023-04-07T03:23:12;95055.81;;;2.03;83.41
13029;BME280;6581;42.662;23.402;2023-04-07T03:25:39;95057.50;;;1.99;83.33
13029;BME280;6581;42.662;23.402;2023-04-07T03:28:07;95058.75;;;2.10;83.00
13029;BME280;6581;42.662;23.402;2023-04-07T03:30:37;95057.19;;;2.18;82.49
13029;BME280;6581;42.662;23.402;2023-04-07T03:33:05;95050.75;;;1.98;83.41
13029;BME280;6581;42.662;23.402;2023-04-07T03:35:32;95048.28;;;1.85;84.42
13029;BME280;6581;42.662;23.402;2023-04-07T03:37:59;95048.91;;;1.90;84.04
13029;BME280;6581;42.662;23.402;2023-04-07T03:40:53;95048.91;;;1.90;84.37
13029;BME280;6581;42.662;23.402;2023-04-07T03:43:20;95044.47;;;1.91;83.77
13029;BME280;6581;42.662;23.402;2023-04-07T03:45:48;95046.91;;;1.87;83.76
13029;BME280;6581;42.662;23.402;2023-04-07T03:48:18;95054.28;;;1.85;84.00
13029;BME280;6581;42.662;23.402;2023-04-07T03:50:56;95049.38;;;1.92;83.59
13029;BME280;6581;42.662;23.402;2023-04-07T03:53:23;95055.97;;;1.90;83.54
13029;BME280;6581;42.662;23.402;2023-04-07T03:55:53;95063.03;;;1.72;85.18
13029;BME280;6581;42.662;23.402;2023-04-07T03:58:36;95063.66;;;1.60;86.68
13029;BME280;6581;42.662;23.402;2023-04-07T04:01:05;95073.75;;;1.53;87.58
13029;BME280;6581;42.662;23.402;2023-04-07T04:03:32;95061.59;;;1.40;88.15
13029;BME280;6581;42.662;23.402;2023-04-07T04:06:15;95061.88;;;1.21;89.19
13029;BME280;6581;42.662;23.402;2023-04-07T04:08:43;95075.50;;;1.10;89.51
13029;BME280;6581;42.662;23.402;2023-04-07T04:11:11;95071.94;;;1.06;90.12
13029;BME280;6581;42.662;23.402;2023-04-07T04:13:45;95081.47;;;1.10;90.37
13029;BME280;6581;42.662;23.402;2023-04-07T04:16:12;95072.00;;;1.14;89.86
13029;BME280;6581;42.662;23.402;2023-04-07T04:18:41;95074.16;;;1.29;89.57
13029;BME280;6581;42.662;23.402;2023-04-07T04:21:12;95078.63;;;1.29;88.81
13029;BME280;6581;42.662;23.402;2023-04-07T04:23:42;95079.69;;;1.28;88.66
13029;BME280;6581;42.662;23.402;2023-04-07T04:26:10;95081.88;;;1.43;87.85
13029;BME280;6581;42.662;23.402;2023-04-07T04:28:40;95087.72;;;1.40;87.49
13029;BME280;6581;42.662;23.402;2023-04-07T04:31:08;95084.81;;;1.50;85.90
13029;BME280;6581;42.662;23.402;2023-04-07T04:33:40;95096.34;;;1.58;85.67
13029;BME280;6581;42.662;23.402;2023-04-07T04:36:07;95088.09;;;1.73;85.74
13029;BME280;6581;42.662;23.402;2023-04-07T04:38:35;95088.72;;;1.78;85.80
13029;BME280;6581;42.662;23.402;2023-04-07T04:41:16;95092.69;;;1.93;84.11
13029;BME280;6581;42.662;23.402;2023-04-07T04:43:44;95098.69;;;1.94;83.02
13029;BME280;6581;42.662;23.402;2023-04-07T04:46:16;95097.94;;;2.10;82.43
13029;BME280;6581;42.662;23.402;2023-04-07T04:49:09;95095.16;;;2.24;82.15
13029;BME280;6581;42.662;23.402;2023-04-07T04:51:37;95100.53;;;2.19;81.75
13029;BME280;6581;42.662;23.402;2023-04-07T04:54:12;95101.16;;;2.25;82.80
13029;BME280;6581;42.662;23.402;2023-04-07T04:57:05;95105.16;;;2.31;82.41
13029;BME280;6581;42.662;23.402;2023-04-07T04:59:37;95113.31;;;2.38;82.11
13029;BME280;6581;42.662;23.402;2023-04-07T05:02:04;95104.06;;;2.32;80.41
13029;BME280;6581;42.662;23.402;2023-04-07T05:04:31;95112.66;;;2.49;78.53
13029;BME280;6581;42.662;23.402;2023-04-07T05:07:18;95116.50;;;2.60;78.75
13029;BME280;6581;42.662;23.402;2023-04-07T05:09:45;95123.41;;;2.65;80.10
13029;BME280;6581;42.662;23.402;2023-04-07T05:12:15;95121.72;;;2.69;81.00
13029;BME280;6581;42.662;23.402;2023-04-07T05:14:47;95119.34;;;2.85;81.55
13029;BME280;6581;42.662;23.402;2023-04-07T05:17:14;95115.81;;;2.98;80.59
13029;BME280;6581;42.662;23.402;2023-04-07T05:19:41;95121.13;;;3.10;79.58
13029;BME280;6581;42.662;23.402;2023-04-07T05:22:21;95123.47;;;3.11;78.38
13029;BME280;6581;42.662;23.402;2023-04-07T05:24:50;95131.28;;;3.20;77.84
13029;BME280;6581;42.662;23.402;2023-04-07T05:27:18;95131.31;;;3.11;78.81
13029;BME280;6581;42.662;23.402;2023-04-07T05:29:50;95132.94;;;3.25;78.75
13029;BME280;6581;42.662;23.402;2023-04-07T05:32:25;95130.47;;;3.28;78.23
13029;BME280;6581;42.662;23.402;2023-04-07T05:34:53;95135.41;;;3.21;79.12
13029;BME280;6581;42.662;23.402;2023-04-07T05:37:21;95138.59;;;3.35;78.91
13029;BME280;6581;42.662;23.402;2023-04-07T05:39:49;95138.28;;;3.37;77.12
13029;BME280;6581;42.662;23.402;2023-04-07T05:42:17;95134.28;;;3.31;78.69
13029;BME280;6581;42.662;23.402;2023-04-07T05:44:49;95139.81;;;3.38;77.32
13029;BME280;6581;42.662;23.402;2023-04-07T05:47:20;95135.53;;;3.63;75.38
13029;BME280;6581;42.662;23.402;2023-04-07T05:49:49;95138.13;;;3.71;75.29
13029;BME280;6581;42.662;23.402;2023-04-07T05:52:16;95144.34;;;3.87;73.76
13029;BME280;6581;42.662;23.402;2023-04-07T05:54:49;95142.00;;;4.15;74.15
13029;BME280;6581;42.662;23.402;2023-04-07T05:57:17;95137.09;;;4.34;72.36
13029;BME280;6581;42.662;23.402;2023-04-07T05:59:46;95139.88;;;4.50;71.57
13029;BME280;6581;42.662;23.402;2023-04-07T06:02:14;95134.00;;;4.53;70.18
13029;BME280;6581;42.662;23.402;2023-04-07T06:04:44;95131.72;;;4.64;69.67
13029;BME280;6581;42.662;23.402;2023-04-07T06:07:15;95132.78;;;4.51;68.96
13029;BME280;6581;42.662;23.402;2023-04-07T06:09:42;95137.63;;;4.40;67.67
13029;BME280;6581;42.662;23.402;2023-04-07T06:12:09;95132.91;;;4.33;67.85
13029;BME280;6581;42.662;23.402;2023-04-07T06:14:38;95133.41;;;4.47;65.53
13029;BME280;6581;42.662;23.402;2023-04-07T06:17:05;95127.78;;;4.58;64.96
13029;BME280;6581;42.662;23.402;2023-04-07T06:19:34;95135.66;;;4.58;65.30
13029;BME280;6581;42.662;23.402;2023-04-07T06:22:01;95124.78;;;4.47;64.62
13029;BME280;6581;42.662;23.402;2023-04-07T06:24:30;95134.38;;;4.22;64.29
13029;BME280;6581;42.662;23.402;2023-04-07T06:26:57;95138.44;;;4.20;66.16
13029;BME280;6581;42.662;23.402;2023-04-07T06:29:24;95133.34;;;4.35;66.91
13029;BME280;6581;42.662;23.402;2023-04-07T06:31:52;95129.16;;;4.43;66.41
13029;BME280;6581;42.662;23.402;2023-04-07T06:34:20;95135.59;;;4.45;67.82
13029;BME280;6581;42.662;23.402;2023-04-07T06:36:48;95135.34;;;4.38;66.12
13029;BME280;6581;42.662;23.402;2023-04-07T06:39:16;95119.22;;;4.49;66.95
13029;BME280;6581;42.662;23.402;2023-04-07T06:41:44;95128.31;;;4.63;66.82
13029;BME280;6581;42.662;23.402;2023-04-07T06:44:11;95135.41;;;4.83;65.38
13029;BME280;6581;42.662;23.402;2023-04-07T06:46:38;95138.00;;;4.71;66.15
13029;BME280;6581;42.662;23.402;2023-04-07T06:49:06;95129.63;;;4.57;66.44
13029;BME280;6581;42.662;23.402;2023-04-07T06:51:33;95136.53;;;4.62;63.66
13029;BME280;6581;42.662;23.402;2023-04-07T06:54:01;95128.81;;;4.77;64.54
13029;BME280;6581;42.662;23.402;2023-04-07T06:56:30;95131.25;;;4.82;62.56
13029;BME280;6581;42.662;23.402;2023-04-07T06:58:57;95129.28;;;4.91;60.95
13029;BME280;6581;42.662;23.402;2023-04-07T07:01:24;95134.91;;;4.69;61.27
13029;BME280;6581;42.662;23.402;2023-04-07T07:03:51;95127.31;;;4.76;62.08
13029;BME280;6581;42.662;23.402;2023-04-07T07:06:19;95131.91;;;4.91;61.54
13029;BME280;6581;42.662;23.402;2023-04-07T07:08:46;95138.81;;;4.84;61.60
13029;BME280;6581;42.662;23.402;2023-04-07T07:11:14;95136.19;;;4.84;59.77
13029;BME280;6581;42.662;23.402;2023-04-07T07:13:41;95142.53;;;4.95;60.99
13029;BME280;6581;42.662;23.402;2023-04-07T07:16:34;95139.38;;;5.02;58.48
13029;BME280;6581;42.662;23.402;2023-04-07T07:19:02;95144.66;;;5.14;56.34
13029;BME280;6581;42.662;23.402;2023-04-07T07:21:29;95138.88;;;5.32;59.61
13029;BME280;6581;42.662;23.402;2023-04-07T07:23:57;95145.00;;;5.24;60.22
13029;BME280;6581;42.662;23.402;2023-04-07T07:26:26;95141.75;;;5.40;59.28
13029;BME280;6581;42.662;23.402;2023-04-07T07:28:53;95141.84;;;5.43;61.92
13029;BME280;6581;42.662;23.402;2023-04-07T07:31:21;95149.63;;;5.40;58.92
13029;BME280;6581;42.662;23.402;2023-04-07T07:33:48;95140.66;;;5.65;58.11
13029;BME280;6581;42.662;23.402;2023-04-07T07:36:16;95143.50;;;5.96;56.87
13029;BME280;6581;42.662;23.402;2023-04-07T07:38:44;95169.50;;;6.38;56.42
13029;BME280;6581;42.662;23.402;2023-04-07T07:41:11;95151.41;;;6.76;55.50
13029;BME280;6581;42.662;23.402;2023-04-07T07:43:39;95154.28;;;6.99;52.90
13029;BME280;6581;42.662;23.402;2023-04-07T07:46:07;95157.44;;;7.20;50.89
13029;BME280;6581;42.662;23.402;2023-04-07T07:48:34;95165.28;;;7.32;50.93
13029;BME280;6581;42.662;23.402;2023-04-07T07:51:27;95164.34;;;7.72;48.89
13029;BME280;6581;42.662;23.402;2023-04-07T07:53:54;95166.31;;;7.43;49.05
13029;BME280;6581;42.662;23.402;2023-04-07T07:56:21;95168.44;;;7.69;48.19
13029;BME280;6581;42.662;23.402;2023-04-07T07:58:50;95166.38;;;7.94;49.39
13029;BME280;6581;42.662;23.402;2023-04-07T08:01:17;95158.50;;;7.78;47.31
13029;BME280;6581;42.662;23.402;2023-04-07T08:03:44;95155.09;;;7.78;47.35
13029;BME280;6581;42.662;23.402;2023-04-07T08:06:12;95166.03;;;7.95;48.23
13029;BME280;6581;42.662;23.402;2023-04-07T08:08:39;95165.84;;;7.88;47.86
13029;BME280;6581;42.662;23.402;2023-04-07T08:11:06;95162.50;;;8.07;46.77
13029;BME280;6581;42.662;23.402;2023-04-07T08:13:33;95164.78;;;8.59;45.86
13029;BME280;6581;42.662;23.402;2023-04-07T08:16:01;95150.53;;;8.83;43.79
13029;BME280;6581;42.662;23.402;2023-04-07T08:18:28;95164.34;;;8.57;42.97
13029;BME280;6581;42.662;23.402;2023-04-07T08:20:56;95154.19;;;8.40;40.01
13029;BME280;6581;42.662;23.402;2023-04-07T08:23:24;95159.16;;;8.41;38.82
13029;BME280;6581;42.662;23.402;2023-04-07T08:25:51;95160.19;;;7.86;39.67
13029;BME280;6581;42.662;23.402;2023-04-07T08:28:18;95163.25;;;7.73;39.19
13029;BME280;6581;42.662;23.402;2023-04-07T08:30:46;95152.19;;;7.83;40.04
13029;BME280;6581;42.662;23.402;2023-04-07T08:33:14;95149.56;;;8.33;41.01
13029;BME280;6581;42.662;23.402;2023-04-07T08:35:42;95149.63;;;8.75;39.23
13029;BME280;6581;42.662;23.402;2023-04-07T08:38:09;95157.47;;;8.72;39.55
13029;BME280;6581;42.662;23.402;2023-04-07T08:40:36;95157.88;;;8.35;39.39
13029;BME280;6581;42.662;23.402;2023-04-07T08:43:07;95151.03;;;8.88;39.49
13029;BME280;6581;42.662;23.402;2023-04-07T08:45:38;95148.25;;;9.46;39.56
13029;BME280;6581;42.662;23.402;2023-04-07T08:48:12;95155.31;;;8.97;36.96
13029;BME280;6581;42.662;23.402;2023-04-07T08:50:44;95157.16;;;8.73;37.71
13029;BME280;6581;42.662;23.402;2023-04-07T08:53:12;95150.94;;;8.85;37.89
13029;BME280;6581;42.662;23.402;2023-04-07T08:55:40;95158.72;;;8.39;38.42
13029;BME280;6581;42.662;23.402;2023-04-07T08:58:08;95155.34;;;8.23;37.89
13029;BME280;6581;42.662;23.402;2023-04-07T09:00:38;95160.53;;;8.55;37.78
13029;BME280;6581;42.662;23.402;2023-04-07T09:03:07;95153.78;;;8.76;37.60
13029;BME280;6581;42.662;23.402;2023-04-07T09:05:34;95152.03;;;9.03;37.60
13029;BME280;6581;42.662;23.402;2023-04-07T09:08:03;95151.94;;;9.19;36.99
13029;BME280;6581;42.662;23.402;2023-04-07T09:10:31;95153.13;;;8.79;36.85
13029;BME280;6581;42.662;23.402;2023-04-07T09:12:58;95149.38;;;9.03;37.46
13029;BME280;6581;42.662;23.402;2023-04-07T09:15:29;95147.69;;;8.92;37.20
13029;BME280;6581;42.662;23.402;2023-04-07T09:17:56;95157.28;;;8.80;37.29
13029;BME280;6581;42.662;23.402;2023-04-07T09:20:24;95159.34;;;8.71;37.13
13029;BME280;6581;42.662;23.402;2023-04-07T09:22:51;95152.69;;;8.77;38.28
13029;BME280;6581;42.662;23.402;2023-04-07T09:25:21;95152.78;;;9.23;38.60
13029;BME280;6581;42.662;23.402;2023-04-07T09:27:56;95155.66;;;9.37;36.09
13029;BME280;6581;42.662;23.402;2023-04-07T09:30:23;95154.31;;;9.24;36.60
13029;BME280;6581;42.662;23.402;2023-04-07T09:32:50;95155.22;;;9.12;37.06
13029;BME280;6581;42.662;23.402;2023-04-07T09:35:17;95160.69;;;8.81;36.55
13029;BME280;6581;42.662;23.402;2023-04-07T09:38:09;95156.09;;;8.97;38.62
13029;BME280;6581;42.662;23.402;2023-04-07T09:40:38;95151.66;;;8.82;37.73
13029;BME280;6581;42.662;23.402;2023-04-07T09:43:05;95152.47;;;9.05;37.63
13029;BME280;6581;42.662;23.402;2023-04-07T09:45:32;95143.59;;;9.17;40.13
13029;BME280;6581;42.662;23.402;2023-04-07T09:48:04;95151.00;;;9.30;38.83
13029;BME280;6581;42.662;23.402;2023-04-07T09:50:32;95149.06;;;9.27;37.85
13029;BME280;6581;42.662;23.402;2023-04-07T09:53:00;95158.25;;;9.33;37.92
13029;BME280;6581;42.662;23.402;2023-04-07T09:55:28;95152.50;;;9.51;36.86
13029;BME280;6581;42.662;23.402;2023-04-07T09:57:56;95158.88;;;9.50;37.37
13029;BME280;6581;42.662;23.402;2023-04-07T10:00:24;95136.00;;;9.34;38.01
13029;BME280;6581;42.662;23.402;2023-04-07T10:02:51;95172.16;;;8.88;38.15
13029;BME280;6581;42.662;23.402;2023-04-07T10:05:19;95168.09;;;8.37;39.42
13029;BME280;6581;42.662;23.402;2023-04-07T10:07:47;95167.47;;;8.43;40.20
13029;BME280;6581;42.662;23.402;2023-04-07T10:10:17;95176.41;;;8.74;40.90
13029;BME280;6581;42.662;23.402;2023-04-07T10:12:45;95167.38;;;8.75;40.05
13029;BME280;6581;42.662;23.402;2023-04-07T10:15:39;95167.66;;;8.89;40.50
13029;BME280;6581;42.662;23.402;2023-04-07T10:18:07;95164.63;;;8.90;39.86
13029;BME280;6581;42.662;23.402;2023-04-07T10:20:35;95173.53;;;9.02;39.58
13029;BME280;6581;42.662;23.402;2023-04-07T10:23:12;95155.34;;;8.77;39.52
13029;BME280;6581;42.662;23.402;2023-04-07T10:25:43;95149.53;;;9.10;39.39
13029;BME280;6581;42.662;23.402;2023-04-07T10:28:11;95150.03;;;9.39;38.94
13029;BME280;6581;42.662;23.402;2023-04-07T10:30:41;95161.94;;;9.29;39.11
13029;BME280;6581;42.662;23.402;2023-04-07T10:33:10;95158.72;;;9.16;39.64
13029;BME280;6581;42.662;23.402;2023-04-07T10:36:02;95158.94;;;9.30;39.44
13029;BME280;6581;42.662;23.402;2023-04-07T10:38:29;95162.81;;;9.37;40.15
13029;BME280;6581;42.662;23.402;2023-04-07T10:40:57;95167.19;;;9.25;40.34
13029;BME280;6581;42.662;23.402;2023-04-07T10:43:49;95178.53;;;9.07;43.37
13029;BME280;6581;42.662;23.402;2023-04-07T10:46:18;95165.69;;;8.86;44.38
13029;BME280;6581;42.662;23.402;2023-04-07T10:49:07;95169.09;;;9.06;43.37
13029;BME280;6581;42.662;23.402;2023-04-07T10:51:34;95165.16;;;9.19;42.84
13029;BME280;6581;42.662;23.402;2023-04-07T10:54:17;95166.88;;;8.88;41.65
13029;BME280;6581;42.662;23.402;2023-04-07T10:57:09;95175.00;;;8.80;43.43
13029;BME280;6581;42.662;23.402;2023-04-07T10:59:40;95169.84;;;8.87;42.90
13029;BME280;6581;42.662;23.402;2023-04-07T11:02:30;95179.22;;;8.84;41.73
13029;BME280;6581;42.662;23.402;2023-04-07T11:04:58;95176.03;;;8.95;43.26
13029;BME280;6581;42.662;23.402;2023-04-07T11:07:50;95181.25;;;8.91;42.63
13029;BME280;6581;42.662;23.402;2023-04-07T11:10:20;95176.91;;;9.21;43.13
13029;BME280;6581;42.662;23.402;2023-04-07T11:13:03;95181.78;;;9.19;41.06
13029;BME280;6581;42.662;23.402;2023-04-07T11:15:31;95186.19;;;8.93;40.65
13029;BME280;6581;42.662;23.402;2023-04-07T11:18:08;95175.47;;;9.05;40.84
13029;BME280;6581;42.662;23.402;2023-04-07T11:20:43;95174.19;;;9.18;40.87
13029;BME280;6581;42.662;23.402;2023-04-07T11:23:12;95182.41;;;9.13;41.69
13029;BME280;6581;42.662;23.402;2023-04-07T11:25:42;95176.66;;;9.07;41.73
13029;BME280;6581;42.662;23.402;2023-04-07T11:28:10;95176.75;;;9.33;41.41
13029;BME280;6581;42.662;23.402;2023-04-07T11:30:43;95176.53;;;9.65;43.20
13029;BME280;6581;42.662;23.402;2023-04-07T11:33:15;95176.19;;;9.66;41.67
13029;BME280;6581;42.662;23.402;2023-04-07T11:35:47;95179.56;;;9.90;41.41
13029;BME280;6581;42.662;23.402;2023-04-07T11:38:14;95180.28;;;9.64;40.58
13029;BME280;6581;42.662;23.402;2023-04-07T11:40:42;95172.34;;;9.64;40.49
13029;BME280;6581;42.662;23.402;2023-04-07T11:43:17;95182.63;;;9.69;41.25
13029;BME280;6581;42.662;23.402;2023-04-07T11:45:44;95177.28;;;9.20;41.54
13029;BME280;6581;42.662;23.402;2023-04-07T11:48:29;95175.63;;;8.93;42.14
13029;BME280;6581;42.662;23.402;2023-04-07T11:50:57;95175.81;;;9.03;42.28
13029;BME280;6581;42.662;23.402;2023-04-07T11:53:25;95170.41;;;8.96;43.15
13029;BME280;6581;42.662;23.402;2023-04-07T11:56:04;95173.88;;;9.00;42.25
13029;BME280;6581;42.662;23.402;2023-04-07T11:58:34;95177.28;;;8.81;42.58
13029;BME280;6581;42.662;23.402;2023-04-07T12:01:03;95166.44;;;9.06;45.33
13029;BME280;6581;42.662;23.402;2023-04-07T12:03:36;95174.31;;;9.02;43.46
13029;BME280;6581;42.662;23.402;2023-04-07T12:06:04;95168.16;;;9.17;42.51
13029;BME280;6581;42.662;23.402;2023-04-07T12:08:40;95172.81;;;9.24;43.49
13029;BME280;6581;42.662;23.402;2023-04-07T12:11:09;95171.47;;;9.33;43.71
13029;BME280;6581;42.662;23.402;2023-04-07T12:13:36;95176.28;;;9.51;44.21
13029;BME280;6581;42.662;23.402;2023-04-07T12:16:04;95171.38;;;9.07;42.07
13029;BME280;6581;42.662;23.402;2023-04-07T12:18:31;95176.44;;;9.16;44.28
13029;BME280;6581;42.662;23.402;2023-04-07T12:20:59;95182.00;;;9.30;43.24
13029;BME280;6581;42.662;23.402;2023-04-07T12:23:26;95177.53;;;9.34;44.31
13029;BME280;6581;42.662;23.402;2023-04-07T12:25:53;95174.91;;;9.15;43.65
13029;BME280;6581;42.662;23.402;2023-04-07T12:28:45;95182.13;;;9.18;45.27
13029;BME280;6581;42.662;23.402;2023-04-07T12:31:13;95178.13;;;9.47;42.58
13029;BME280;6581;42.662;23.402;2023-04-07T12:33:40;95173.75;;;9.58;44.17
13029;BME280;6581;42.662;23.402;2023-04-07T12:36:09;95181.63;;;9.54;41.59
13029;BME280;6581;42.662;23.402;2023-04-07T12:38:36;95170.22;;;9.50;44.00
13029;BME280;6581;42.662;23.402;2023-04-07T12:41:03;95167.28;;;9.55;44.80
13029;BME280;6581;42.662;23.402;2023-04-07T12:43:30;95155.66;;;9.14;43.50
13029;BME280;6581;42.662;23.402;2023-04-07T12:45:58;95171.75;;;9.51;44.25
13029;BME280;6581;42.662;23.402;2023-04-07T12:48:25;95170.88;;;9.66;43.74
13029;BME280;6581;42.662;23.402;2023-04-07T12:50:52;95174.34;;;9.70;43.40
13029;BME280;6581;42.662;23.402;2023-04-07T12:53:20;95173.63;;;9.51;42.71
13029;BME280;6581;42.662;23.402;2023-04-07T12:55:48;95174.47;;;9.55;42.00
13029;BME280;6581;42.662;23.402;2023-04-07T12:58:15;95173.75;;;9.58;42.17
13029;BME280;6581;42.662;23.402;2023-04-07T13:00:43;95167.81;;;9.87;43.22
13029;BME280;6581;42.662;23.402;2023-04-07T13:03:11;95182.00;;;10.02;43.22
13029;BME280;6581;42.662;23.402;2023-04-07T13:05:38;95187.94;;;9.95;42.48
13029;BME280;6581;42.662;23.402;2023-04-07T13:08:05;95185.56;;;9.41;41.83
13029;BME280;6581;42.662;23.402;2023-04-07T13:10:34;95189.59;;;9.35;42.81
13029;BME280;6581;42.662;23.402;2023-04-07T13:13:01;95182.19;;;9.21;44.02
13029;BME280;6581;42.662;23.402;2023-04-07T13:15:28;95185.38;;;9.30;44.60
13029;BME280;6581;42.662;23.402;2023-04-07T13:17:55;95180.84;;;9.31;44.17
13029;BME280;6581;42.662;23.402;2023-04-07T13:20:22;95185.31;;;9.27;44.41
13029;BME280;6581;42.662;23.402;2023-04-07T13:22:52;95187.72;;;9.35;42.62
13029;BME280;6581;42.662;23.402;2023-04-07T13:25:19;95181.72;;;9.16;44.02
13029;BME280;6581;42.662;23.402;2023-04-07T13:27:47;95192.47;;;9.26;43.65
13029;BME280;6581;42.662;23.402;2023-04-07T13:30:15;95185.44;;;9.34;43.79